Time;durP1;ratioP1;P1;durP2;ratioP2;P2;SDS_P1;SDS_P2;PMS_P1;PMS_P2;Temp;Humidity;BMP_temperature;BMP_pressure;BME280_temperature;BME280_humidity;BME280_pressure;Samples;Min_cycle;Max_cycle;Signal;HPM_P1;HPM_P2
2022/01/15 00:00:36;;;;;;;19.48;11.65;;;;;;;6.18;62.62;100769.47;5035195;28;20025;-80
2022/01/15 00:03:04;;;;;;;23.13;12.30;;;;;;;6.17;62.48;100783.78;5056925;28;20052;-80
2022/01/15 00:05:31;;;;;;;21.45;11.20;;;;;;;6.17;62.47;100778.44;5039107;28;20091;-80
2022/01/15 00:08:03;;;;;;;22.13;11.95;;;;;;;6.13;62.64;100771.56;5057375;28;20024;-80
2022/01/15 00:10:29;;;;;;;26.60;12.95;;;;;;;6.10;62.31;100763.75;5038747;28;20021;-79
2022/01/15 00:12:57;;;;;;;32.72;15.95;;;;;;;6.09;62.63;100770.03;5039447;28;20037;-80
2022/01/15 00:15:28;;;;;;;24.25;12.65;;;;;;;6.03;62.89;100762.38;5056519;28;20525;-80
2022/01/15 00:18:00;;;;;;;23.90;12.32;;;;;;;5.91;63.25;100755.13;5056279;28;20027;-80
2022/01/15 00:20:28;;;;;;;26.67;14.05;;;;;;;5.82;63.53;100766.31;5056078;28;20025;-80
2022/01/15 00:22:55;;;;;;;19.73;11.20;;;;;;;5.78;63.64;100770.13;5056411;28;20033;-80
2022/01/15 00:25:25;;;;;;;23.70;12.98;;;;;;;5.74;63.76;100757.91;5038016;28;20053;-80
2022/01/15 00:27:50;;;;;;;20.23;11.50;;;;;;;5.68;63.83;100759.13;5055713;28;20122;-80
2022/01/15 00:30:17;;;;;;;23.08;11.77;;;;;;;5.72;63.97;100776.66;5038434;28;20336;-80
2022/01/15 00:32:43;;;;;;;19.70;12.23;;;;;;;5.69;63.88;100768.00;5056197;28;20029;-80
2022/01/15 00:35:12;;;;;;;23.02;11.57;;;;;;;5.71;63.78;100779.44;5056036;28;20359;-80
2022/01/15 00:37:39;;;;;;;44.28;20.67;;;;;;;5.71;63.99;100769.63;5056214;28;20040;-79
2022/01/15 00:40:09;;;;;;;23.92;13.55;;;;;;;5.68;63.67;100774.28;5055884;28;20032;-79
2022/01/15 00:42:37;;;;;;;24.88;13.15;;;;;;;5.66;63.69;100770.81;5071386;28;20092;-80
2022/01/15 00:45:07;;;;;;;51.67;25.83;;;;;;;5.66;63.72;100777.03;5066391;28;20033;-80
2022/01/15 00:47:33;;;;;;;38.90;23.15;;;;;;;5.71;63.71;100800.78;5038753;28;20108;-80
2022/01/15 00:50:00;;;;;;;33.40;18.67;;;;;;;5.72;63.49;100802.50;5055819;28;20475;-80
2022/01/15 00:52:25;;;;;;;26.30;14.65;;;;;;;5.74;63.59;100800.59;5055615;28;20482;-80
2022/01/15 00:54:52;;;;;;;21.30;12.50;;;;;;;5.80;63.55;100801.09;5038185;28;20025;-80
2022/01/15 00:57:18;;;;;;;20.05;11.50;;;;;;;5.94;62.97;100797.63;5055777;28;20460;-80
2022/01/15 00:59:44;;;;;;;24.95;11.32;;;;;;;5.96;63.00;100799.25;5037747;28;20049;-81
2022/01/15 01:02:09;;;;;;;22.85;12.35;;;;;;;6.06;62.59;100804.91;5055605;28;20055;-80
2022/01/15 01:04:35;;;;;;;19.88;11.75;;;;;;;6.11;61.40;100799.31;5054979;28;20040;-80
2022/01/15 01:07:00;;;;;;;23.27;12.95;;;;;;;6.13;61.01;100786.72;5055056;28;20037;-80
2022/01/15 01:09:35;;;;;;;26.60;12.98;;;;;;;6.11;61.07;100792.16;5036953;28;20458;-80
2022/01/15 01:12:19;;;;;;;31.40;18.00;;;;;;;6.03;61.01;100789.94;5054891;28;20036;-80
2022/01/15 01:20:20;;;;;;;24.35;13.50;;;;;;;5.92;61.33;100799.56;5055246;28;20504;-80
2022/01/15 01:25:16;;;;;;;21.27;12.55;;;;;;;5.97;60.97;100808.13;5038201;28;20039;-79
2022/01/15 01:27:46;;;;;;;21.52;11.75;;;;;;;5.95;60.94;100816.25;5054461;28;20052;-80
2022/01/15 01:30:36;;;;;;;27.48;15.80;;;;;;;5.98;61.08;100825.88;5054740;28;20027;-81
2022/01/15 01:36:22;;;;;;;18.40;10.75;;;;;;;5.97;60.35;100821.47;4993618;28;20121;-80
2022/01/15 01:41:17;;;;;;;19.77;11.05;;;;;;;5.87;60.57;100833.69;5029620;28;20098;-80
2022/01/15 01:44:02;;;;;;;25.83;11.15;;;;;;;5.87;60.75;100829.16;5054183;28;20032;-80
2022/01/15 01:46:51;;;;;;;19.77;11.32;;;;;;;5.84;60.61;100839.16;5053923;28;20029;-81
2022/01/15 01:49:19;;;;;;;23.45;11.40;;;;;;;5.80;60.76;100845.63;5038092;28;20040;-79
2022/01/15 01:51:45;;;;;;;17.58;9.95;;;;;;;5.78;60.76;100847.53;5055143;28;20017;-79
2022/01/15 01:54:13;;;;;;;17.58;10.93;;;;;;;5.72;60.93;100858.56;5055100;28;20037;-79
2022/01/15 01:56:39;;;;;;;17.60;10.73;;;;;;;5.70;61.00;100873.78;5037384;28;20032;-79
2022/01/15 01:59:06;;;;;;;20.08;11.45;;;;;;;5.63;61.09;100870.59;5037099;28;20033;-81
2022/01/15 02:01:32;;;;;;;21.33;9.75;;;;;;;5.61;61.04;100869.81;5054462;28;20048;-79
2022/01/15 02:03:58;;;;;;;15.98;9.95;;;;;;;5.58;61.44;100886.00;5036669;28;20513;-80
2022/01/15 02:06:23;;;;;;;20.00;11.20;;;;;;;5.63;61.28;100886.59;5054756;28;20166;-80
2022/01/15 02:08:50;;;;;;;19.17;10.38;;;;;;;5.60;61.20;100893.91;5054241;28;20031;-80
2022/01/15 02:11:16;;;;;;;18.75;11.40;;;;;;;5.47;61.42;100883.94;5036730;28;20107;-78
2022/01/15 02:13:44;;;;;;;17.45;10.15;;;;;;;5.49;61.74;100892.72;5054685;28;20478;-79
2022/01/15 02:16:11;;;;;;;24.38;11.38;;;;;;;5.53;61.50;100897.88;5054051;28;20445;-79
2022/01/15 02:18:37;;;;;;;19.63;10.23;;;;;;;5.56;61.43;100913.72;5054915;28;20095;-80
2022/01/15 02:23:34;;;;;;;24.05;11.60;;;;;;;5.53;61.25;100921.91;5075934;28;20072;-79
2022/01/15 02:26:05;;;;;;;22.45;11.88;;;;;;;5.50;61.47;100921.09;5038269;28;20076;-79
2022/01/15 02:28:37;;;;;;;23.60;10.90;;;;;;;5.45;61.10;100914.31;5035837;28;20165;-80
2022/01/15 02:31:15;;;;;;;21.90;10.88;;;;;;;5.50;61.18;100921.09;5048353;28;20032;-79
2022/01/15 02:33:43;;;;;;;22.50;12.02;;;;;;;5.50;61.05;100931.78;5035884;28;20029;-79
2022/01/15 02:36:22;;;;;;;21.45;13.07;;;;;;;5.46;60.82;100930.25;5035793;28;20075;-80
2022/01/15 02:39:08;;;;;;;23.27;14.18;;;;;;;5.46;60.73;100930.25;5053511;28;20468;-79
2022/01/15 02:41:35;;;;;;;23.52;13.43;;;;;;;5.43;60.86;100935.75;5053525;28;20021;-80
2022/01/15 02:44:03;;;;;;;24.17;11.73;;;;;;;5.37;61.27;100940.56;5053525;28;20101;-80
2022/01/15 02:48:59;;;;;;;23.48;13.25;;;;;;;5.39;61.10;100944.84;5053038;28;20121;-79
2022/01/15 02:51:26;;;;;;;22.63;13.35;;;;;;;5.41;60.96;100955.47;5036121;28;20032;-80
2022/01/15 02:53:55;;;;;;;25.80;13.75;;;;;;;5.44;60.53;100941.94;5036101;28;20072;-79
2022/01/15 02:56:25;;;;;;;27.55;13.90;;;;;;;5.41;60.23;100956.28;5019340;28;20049;-80
2022/01/15 02:58:51;;;;;;;26.80;13.98;;;;;;;5.38;60.36;100947.63;5036030;28;20040;-80
2022/01/15 03:01:17;;;;;;;20.25;11.45;;;;;;;5.40;60.40;100948.38;5053159;28;20025;-80
2022/01/15 03:03:43;;;;;;;32.13;16.95;;;;;;;5.37;60.13;100954.75;5019472;28;20120;-80
2022/01/15 03:06:13;;;;;;;19.40;11.65;;;;;;;5.35;60.21;100956.63;5035536;28;20037;-80
2022/01/15 03:08:44;;;;;;;23.65;15.35;;;;;;;5.40;59.69;100951.91;5035354;28;20055;-80
2022/01/15 03:11:11;;;;;;;33.85;17.80;;;;;;;5.48;59.45;100960.34;5035158;28;20500;-80
2022/01/15 03:13:38;;;;;;;28.08;14.63;;;;;;;5.46;58.54;100951.59;5035094;28;20501;-79
2022/01/15 03:16:05;;;;;;;21.65;10.18;;;;;;;5.56;57.67;100961.75;5034711;28;20506;-79
2022/01/15 03:18:31;;;;;;;14.95;8.95;;;;;;;5.53;57.44;100975.25;5018878;28;20064;-79
2022/01/15 03:21:06;;;;;;;19.02;9.75;;;;;;;5.62;57.49;100969.41;5036919;28;20032;-79
2022/01/15 03:23:32;;;;;;;23.40;13.38;;;;;;;5.61;57.08;100965.00;5019055;28;20029;-78
2022/01/15 03:25:57;;;;;;;18.77;10.57;;;;;;;5.74;56.74;100971.38;5055256;28;20041;-81
2022/01/15 03:28:23;;;;;;;22.77;13.27;;;;;;;5.81;56.17;100970.13;5050842;28;20068;-80
2022/01/15 03:30:49;;;;;;;17.45;9.75;;;;;;;5.76;56.23;100965.03;5051157;28;20422;-81
2022/01/15 03:33:14;;;;;;;15.88;8.13;;;;;;;5.86;56.46;100957.38;5064716;28;20059;-78
2022/01/15 03:35:40;;;;;;;15.13;7.97;;;;;;;5.93;56.19;100956.09;5055001;28;20487;-79
2022/01/15 03:38:07;;;;;;;16.10;9.27;;;;;;;5.92;55.90;100967.72;5037286;28;20044;-79
2022/01/15 03:40:34;;;;;;;16.63;9.65;;;;;;;6.01;55.51;100948.50;5053195;28;20471;-80
2022/01/15 03:43:00;;;;;;;13.23;8.55;;;;;;;6.09;55.29;100953.38;5052393;28;20561;-80
2022/01/15 03:45:27;;;;;;;19.00;9.10;;;;;;;6.13;55.10;100957.63;5051856;28;20029;-80
2022/01/15 03:47:53;;;;;;;17.33;9.65;;;;;;;6.09;55.10;100961.41;5051949;28;20024;-80
2022/01/15 03:50:19;;;;;;;17.50;9.63;;;;;;;6.11;54.82;100954.19;5034602;28;20040;-80
2022/01/15 03:52:46;;;;;;;24.15;14.18;;;;;;;6.18;54.81;100969.75;5052344;28;20025;-80
2022/01/15 03:55:14;;;;;;;24.02;11.07;;;;;;;6.19;54.64;100982.16;5052755;28;20017;-80
2022/01/15 03:57:40;;;;;;;16.55;9.65;;;;;;;6.18;54.59;100999.13;5034207;28;20144;-80
2022/01/15 04:00:16;;;;;;;43.75;25.45;;;;;;;6.21;54.49;100993.59;5053643;28;20108;-80
2022/01/15 04:02:42;;;;;;;18.90;10.18;;;;;;;6.27;53.86;100995.91;5035804;28;20036;-80
2022/01/15 04:05:09;;;;;;;18.92;10.88;;;;;;;6.25;53.66;100984.47;5054690;28;20029;-80
2022/01/15 04:07:35;;;;;;;21.58;11.27;;;;;;;6.25;53.60;100999.63;5034871;28;20025;-81
2022/01/15 04:10:01;;;;;;;14.27;8.23;;;;;;;6.28;53.60;100986.97;5034828;28;20094;-80
2022/01/15 04:12:26;;;;;;;17.88;8.30;;;;;;;6.28;53.58;100994.97;5035176;28;20024;-80
2022/01/15 04:14:52;;;;;;;18.38;8.20;;;;;;;6.38;53.51;100996.19;5035141;28;20082;-81
2022/01/15 04:17:17;;;;;;;15.75;10.00;;;;;;;6.39;53.69;100984.53;5052603;28;20036;-81
2022/01/15 04:19:43;;;;;;;16.92;8.63;;;;;;;6.51;53.41;100997.16;5052960;28;20032;-80
2022/01/15 04:22:10;;;;;;;14.63;8.50;;;;;;;6.55;53.17;100982.69;5034269;28;20060;-80
2022/01/15 04:24:35;;;;;;;16.85;9.50;;;;;;;6.70;53.35;101007.63;5052012;28;20505;-80
2022/01/15 04:27:01;;;;;;;16.05;9.15;;;;;;;6.72;53.54;101028.94;5034364;28;20025;-81
2022/01/15 04:29:27;;;;;;;24.50;9.20;;;;;;;6.78;53.82;101029.44;5052665;28;20037;-81
2022/01/15 04:31:52;;;;;;;17.67;9.52;;;;;;;6.81;53.94;101023.03;5052563;28;20036;-82
2022/01/15 04:34:25;;;;;;;19.67;10.57;;;;;;;6.78;54.10;101021.41;5034813;28;20402;-81
2022/01/15 04:36:52;;;;;;;26.95;11.40;;;;;;;6.85;54.31;101028.09;5052685;28;20175;-81
2022/01/15 04:39:18;;;;;;;22.90;10.80;;;;;;;6.78;54.61;101020.56;5035274;28;20025;-80
2022/01/15 04:41:43;;;;;;;20.75;12.23;;;;;;;6.60;54.63;101035.00;5051873;28;20029;-81
2022/01/15 04:44:09;;;;;;;28.60;12.80;;;;;;;6.59;54.96;101042.16;5052291;28;20031;-81
2022/01/15 04:46:36;;;;;;;24.80;13.45;;;;;;;6.58;55.40;101030.59;5052558;28;20035;-80
2022/01/15 04:49:03;;;;;;;26.80;11.88;;;;;;;6.51;56.12;101028.38;5055271;28;20033;-81
2022/01/15 04:51:29;;;;;;;19.48;11.55;;;;;;;6.49;56.19;101041.81;5037838;28;20027;-80
2022/01/15 04:53:54;;;;;;;21.98;12.07;;;;;;;6.55;56.48;101045.94;5037768;28;20029;-80
2022/01/15 04:56:20;;;;;;;24.67;13.18;;;;;;;6.48;56.71;101045.44;5037231;28;20041;-80
2022/01/15 04:58:46;;;;;;;27.23;14.82;;;;;;;6.36;57.29;101046.13;5037797;28;20078;-81
2022/01/15 05:01:12;;;;;;;25.35;14.65;;;;;;;6.32;57.81;101054.44;5037729;28;20104;-81
2022/01/15 05:03:37;;;;;;;30.23;15.60;;;;;;;6.29;57.88;101049.25;5055420;28;20020;-82
2022/01/15 05:06:03;;;;;;;27.70;13.77;;;;;;;6.14;58.17;101048.34;5037305;28;20093;-81
2022/01/15 05:08:28;;;;;;;30.27;16.15;;;;;;;6.16;58.23;101049.09;5004915;28;20036;-80
2022/01/15 05:10:58;;;;;;;31.23;15.18;;;;;;;6.26;58.20;101052.13;5054908;28;20029;-80
2022/01/15 05:13:28;;;;;;;32.42;13.98;;;;;;;6.32;58.18;101055.28;5037365;28;20029;-80
2022/01/15 05:15:54;;;;;;;23.15;13.52;;;;;;;6.33;58.05;101043.66;5020744;28;20090;-81
2022/01/15 05:18:20;;;;;;;19.55;11.45;;;;;;;6.46;57.74;101047.34;5031775;28;20025;-81
2022/01/15 05:20:46;;;;;;;24.48;12.25;;;;;;;6.51;57.73;101058.63;5066343;28;20025;-80
2022/01/15 05:23:12;;;;;;;17.52;11.00;;;;;;;6.47;58.18;101050.88;5067703;28;20062;-80
2022/01/15 05:25:39;;;;;;;28.25;13.68;;;;;;;6.48;57.93;101056.13;5066094;28;20496;-81
2022/01/15 05:28:05;;;;;;;29.35;14.40;;;;;;;6.51;58.16;101053.28;5037843;28;20056;-79
2022/01/15 05:30:32;;;;;;;24.73;12.82;;;;;;;6.48;58.29;101055.28;5054457;28;20509;-81
2022/01/15 05:32:58;;;;;;;24.85;13.93;;;;;;;6.44;58.16;101067.09;5055774;28;20025;-81
2022/01/15 05:35:26;;;;;;;29.02;13.48;;;;;;;6.41;58.57;101070.81;5054953;28;20056;-79
2022/01/15 05:37:56;;;;;;;26.00;15.50;;;;;;;6.36;58.44;101075.53;5055359;28;20505;-81
2022/01/15 05:40:23;;;;;;;26.80;14.88;;;;;;;6.32;58.62;101071.31;5067887;28;20031;-79
2022/01/15 05:42:49;;;;;;;28.00;13.13;;;;;;;6.31;59.19;101079.41;5068011;28;20041;-78
2022/01/15 05:45:14;;;;;;;26.35;12.93;;;;;;;6.30;59.17;101086.56;5052586;28;20048;-79
2022/01/15 05:47:40;;;;;;;21.77;12.30;;;;;;;6.24;59.41;101081.56;5053082;28;20462;-78
2022/01/15 05:50:07;;;;;;;29.92;16.10;;;;;;;6.26;59.75;101101.06;5054536;28;20402;-80
2022/01/15 05:52:32;;;;;;;28.02;14.43;;;;;;;6.28;59.52;101091.13;5054007;28;20056;-80
2022/01/15 05:54:57;;;;;;;40.80;15.68;;;;;;;6.30;59.53;101075.88;5054160;28;20415;-79
2022/01/15 05:57:23;;;;;;;30.60;16.35;;;;;;;6.37;59.41;101079.94;5053973;28;20039;-78
2022/01/15 05:59:51;;;;;;;29.02;14.35;;;;;;;6.46;59.56;101090.09;5053435;28;20029;-80
2022/01/15 06:02:18;;;;;;;23.83;12.45;;;;;;;6.46;59.23;101090.09;5053033;28;20090;-79
2022/01/15 06:04:43;;;;;;;36.92;15.27;;;;;;;6.56;59.11;101088.63;5052943;28;20032;-79
2022/01/15 06:07:09;;;;;;;28.73;15.18;;;;;;;6.57;58.77;101087.66;5054129;28;20041;-79
2022/01/15 06:09:34;;;;;;;41.78;17.08;;;;;;;6.58;58.53;101089.38;5053641;28;20563;-79
2022/01/15 06:12:01;;;;;;;35.00;16.38;;;;;;;6.41;58.69;101102.00;5052824;28;20461;-79
2022/01/15 06:14:26;;;;;;;28.73;16.23;;;;;;;6.44;58.91;101101.81;5053325;28;20025;-79
2022/01/15 06:16:53;;;;;;;51.53;25.63;;;;;;;6.40;59.14;101097.59;5053583;28;20476;-80
2022/01/15 06:19:19;;;;;;;41.17;21.25;;;;;;;6.40;59.19;101090.44;5052613;28;20474;-80
2022/01/15 06:21:45;;;;;;;35.28;17.50;;;;;;;6.40;58.90;101098.44;5052421;28;20079;-80
2022/01/15 06:24:11;;;;;;;31.38;16.75;;;;;;;6.29;59.04;101095.53;5052638;28;20112;-80
2022/01/15 06:26:37;;;;;;;32.45;18.00;;;;;;;6.29;59.19;101110.69;5053452;28;20082;-80
2022/01/15 06:29:02;;;;;;;28.13;14.82;;;;;;;6.25;59.41;101091.31;5052077;28;20076;-79
2022/01/15 06:31:29;;;;;;;36.22;17.20;;;;;;;6.26;59.07;101101.06;5053486;28;20453;-80
2022/01/15 06:33:55;;;;;;;30.58;16.60;;;;;;;6.13;59.53;101097.34;5052780;28;20025;-80
2022/01/15 06:36:21;;;;;;;29.35;15.80;;;;;;;6.18;59.83;101108.63;5033529;28;20033;-80
2022/01/15 06:38:47;;;;;;;40.38;18.23;;;;;;;6.10;59.54;101107.31;5015284;28;20068;-80
2022/01/15 06:41:12;;;;;;;29.23;18.08;;;;;;;6.05;59.65;101118.28;5033180;28;20033;-80
2022/01/15 06:43:38;;;;;;;36.40;18.90;;;;;;;5.81;60.06;101116.91;5017158;28;20026;-81
2022/01/15 06:46:03;;;;;;;40.15;19.23;;;;;;;5.73;60.51;101117.31;5035287;28;20547;-81
2022/01/15 06:48:30;;;;;;;40.05;19.60;;;;;;;5.69;61.05;101117.56;5017889;28;20096;-81
2022/01/15 06:50:56;;;;;;;46.78;22.75;;;;;;;5.64;61.34;101120.47;5022268;28;20033;-80
2022/01/15 06:53:21;;;;;;;34.45;19.83;;;;;;;5.68;61.68;101121.16;5034580;28;20045;-81
2022/01/15 06:55:49;;;;;;;37.17;20.25;;;;;;;5.72;61.18;101125.41;5033298;28;20029;-80
2022/01/15 06:58:15;;;;;;;45.97;23.17;;;;;;;5.60;61.48;101118.03;5015831;28;20025;-80
2022/01/15 07:00:42;;;;;;;50.95;22.88;;;;;;;5.62;61.60;101116.16;5033826;28;20026;-82
2022/01/15 07:03:07;;;;;;;61.75;26.00;;;;;;;5.69;61.47;101113.06;5015783;28;20033;-82
2022/01/15 07:05:33;;;;;;;78.70;33.45;;;;;;;5.74;61.26;101118.16;5033124;28;20529;-82
2022/01/15 07:07:58;;;;;;;34.30;19.45;;;;;;;5.72;61.32;101125.41;5033159;28;20099;-82
2022/01/15 07:10:24;;;;;;;36.95;16.02;;;;;;;5.63;61.39;101123.19;5015045;28;20096;-82
2022/01/15 07:12:50;;;;;;;40.75;17.02;;;;;;;5.68;61.57;101126.50;5033147;28;20029;-81
2022/01/15 07:15:18;;;;;;;29.63;15.00;;;;;;;5.75;61.10;101127.91;5032533;28;20105;-81
2022/01/15 07:17:45;;;;;;;27.77;14.63;;;;;;;5.74;60.83;101112.84;5037570;28;20025;-81
2022/01/15 07:20:14;;;;;;;34.13;14.30;;;;;;;5.82;60.83;101127.47;5048855;28;20073;-81
2022/01/15 07:22:41;;;;;;;32.70;15.80;;;;;;;5.79;60.73;101110.75;5027193;28;20171;-80
2022/01/15 07:25:08;;;;;;;44.92;14.70;;;;;;;5.92;60.27;101119.88;5033854;28;20021;-80
2022/01/15 07:27:34;;;;;;;36.92;16.60;;;;;;;5.97;60.20;101118.69;5033221;28;20056;-81
2022/01/15 07:30:01;;;;;;;36.15;16.00;;;;;;;6.06;60.27;101127.97;4999074;28;20026;-81
2022/01/15 07:32:27;;;;;;;37.05;18.30;;;;;;;6.05;59.62;101112.94;5016570;28;20027;-81
2022/01/15 07:34:52;;;;;;;29.63;16.08;;;;;;;6.08;59.92;101123.44;5015450;28;20470;-81
2022/01/15 07:37:18;;;;;;;34.15;15.10;;;;;;;6.16;59.32;101129.22;5014743;28;20028;-81
2022/01/15 07:39:43;;;;;;;31.50;14.68;;;;;;;6.13;58.88;101133.84;5032698;28;20063;-80
2022/01/15 07:42:10;;;;;;;28.52;14.90;;;;;;;6.17;58.71;101136.28;5031708;28;20021;-80
2022/01/15 07:44:37;;;;;;;30.67;14.85;;;;;;;6.24;57.79;101142.16;5015254;28;20116;-80
2022/01/15 07:47:04;;;;;;;32.65;15.73;;;;;;;6.22;56.99;101123.53;5032746;28;20017;-82
2022/01/15 07:49:32;;;;;;;21.02;11.52;;;;;;;6.42;54.17;101139.28;5032526;28;20465;-81
2022/01/15 07:51:59;;;;;;;28.98;12.80;;;;;;;6.45;53.41;101131.09;5031922;28;20095;-82
2022/01/15 07:54:25;;;;;;;19.13;10.02;;;;;;;6.54;52.66;101135.94;5032511;28;20059;-80
2022/01/15 07:56:54;;;;;;;17.05;10.15;;;;;;;6.60;51.83;101128.53;5032633;28;20021;-79
2022/01/15 07:59:23;;;;;;;22.35;8.13;;;;;;;6.62;51.01;101118.59;5032592;28;20091;-82
2022/01/15 08:01:49;;;;;;;15.40;9.25;;;;;;;6.79;49.91;101123.88;5031695;28;20033;-81
2022/01/15 08:04:14;;;;;;;19.70;8.95;;;;;;;6.87;49.53;101117.13;5032774;28;20017;-82
2022/01/15 08:06:41;;;;;;;83.07;36.85;;;;;;;6.93;49.48;101130.13;5031351;28;20179;-82
2022/01/15 08:09:09;;;;;;;32.00;16.73;;;;;;;6.99;49.60;101139.59;5033259;28;20040;-82
2022/01/15 08:11:35;;;;;;;24.48;10.32;;;;;;;7.06;49.32;101138.31;5033844;28;20479;-84
2022/01/15 08:14:00;;;;;;;21.13;9.93;;;;;;;7.09;49.57;101132.78;5033341;28;20025;-81
2022/01/15 08:16:27;;;;;;;24.02;9.75;;;;;;;7.17;49.03;101137.66;5033842;28;20026;-84
2022/01/15 08:18:53;;;;;;;17.00;9.88;;;;;;;7.20;48.83;101146.34;5032072;28;20098;-81
2022/01/15 08:21:18;;;;;;;19.90;10.57;;;;;;;7.22;49.34;101144.44;5031666;28;20116;-80
2022/01/15 08:23:44;;;;;;;17.63;9.95;;;;;;;7.21;49.42;101142.75;5034010;28;20038;-80
2022/01/15 08:26:09;;;;;;;17.67;8.73;;;;;;;7.33;49.02;101158.06;5037126;28;20108;-83
2022/01/15 08:28:37;;;;;;;18.63;9.85;;;;;;;7.35;48.29;101145.44;5019924;28;20064;-81
2022/01/15 08:31:06;;;;;;;18.98;9.43;;;;;;;7.39;48.60;101141.66;5036045;28;20021;-80
2022/01/15 08:33:32;;;;;;;17.45;8.10;;;;;;;7.53;47.34;101148.81;5036011;28;20090;-80
2022/01/15 08:35:57;;;;;;;13.65;7.97;;;;;;;7.59;46.79;101154.66;5035038;28;20056;-78
2022/01/15 08:38:24;;;;;;;15.75;8.73;;;;;;;7.71;46.64;101139.66;5036975;28;20091;-81
2022/01/15 08:40:50;;;;;;;14.82;7.43;;;;;;;7.77;46.26;101141.13;5036049;28;20071;-78
2022/01/15 08:43:16;;;;;;;15.95;8.55;;;;;;;7.98;45.87;101139.81;5018258;28;20063;-78
2022/01/15 08:45:43;;;;;;;18.30;7.47;;;;;;;8.03;44.16;101145.72;5037250;28;20406;-79
2022/01/15 08:48:10;;;;;;;12.50;7.68;;;;;;;8.13;43.80;101160.28;5018493;28;20036;-77
2022/01/15 08:50:36;;;;;;;22.38;7.75;;;;;;;8.09;43.34;101154.25;5037645;28;20037;-78
2022/01/15 08:53:06;;;;;;;17.02;8.13;;;;;;;8.08;43.50;101162.34;5018467;28;20021;-79
2022/01/15 08:55:38;;;;;;;14.23;7.43;;;;;;;8.02;43.74;101158.25;5037025;28;20025;-81
2022/01/15 08:58:04;;;;;;;20.52;8.23;;;;;;;8.19;43.87;101159.88;5038604;28;20068;-79
2022/01/15 09:00:30;;;;;;;23.30;9.25;;;;;;;8.22;43.43;101159.69;5031082;28;20037;-79
2022/01/15 09:02:56;;;;;;;17.77;8.35;;;;;;;8.32;43.88;101171.56;5039113;28;20079;-79
2022/01/15 09:05:23;;;;;;;18.05;8.75;;;;;;;8.30;44.11;101160.09;5053394;28;20029;-79
2022/01/15 09:07:50;;;;;;;14.55;8.02;;;;;;;8.40;44.48;101163.06;5043989;28;20061;-79
2022/01/15 09:10:17;;;;;;;19.60;9.13;;;;;;;8.40;44.38;101155.88;5042341;28;20026;-81
2022/01/15 09:12:43;;;;;;;18.02;8.27;;;;;;;8.41;43.74;101138.81;5021330;28;20022;-79
2022/01/15 09:15:09;;;;;;;15.18;7.88;;;;;;;8.51;42.93;101150.66;5037545;28;20033;-80
2022/01/15 09:17:34;;;;;;;18.10;10.63;;;;;;;8.58;42.86;101143.09;5033452;28;20505;-81
2022/01/15 09:20:00;;;;;;;16.52;8.32;;;;;;;8.69;43.09;101149.47;5054779;28;20117;-80
2022/01/15 09:22:25;;;;;;;22.10;8.98;;;;;;;8.77;43.60;101147.13;5055191;28;20474;-80
2022/01/15 09:24:51;;;;;;;19.38;9.30;;;;;;;8.91;43.54;101140.88;5058768;28;20040;-82
2022/01/15 09:30:15;;;;;;;22.73;8.93;;;;;;;9.17;43.03;101134.63;5056258;28;20039;-82
2022/01/15 09:32:43;;;;;;;22.70;8.23;;;;;;;9.25;42.97;101144.84;5059798;28;20479;-81
2022/01/15 09:35:09;;;;;;;14.73;8.38;;;;;;;9.30;42.88;101148.06;5056171;28;20029;-81
2022/01/15 09:37:35;;;;;;;32.13;10.45;;;;;;;9.43;42.97;101138.22;5054428;28;20041;-79
2022/01/15 09:40:02;;;;;;;22.30;8.80;;;;;;;9.48;42.11;101136.06;5055987;28;20526;-81
2022/01/15 09:42:28;;;;;;;21.95;8.63;;;;;;;9.55;40.65;101145.44;5037740;28;20107;-80
2022/01/15 09:44:54;;;;;;;15.65;8.23;;;;;;;9.46;41.01;101143.38;5056263;28;20036;-81
2022/01/15 09:47:22;;;;;;;22.55;9.68;;;;;;;9.39;41.01;101131.34;5022463;28;20029;-82
2022/01/15 09:49:48;;;;;;;22.13;9.82;;;;;;;9.46;40.93;101161.31;5056428;28;20059;-82
2022/01/15 09:52:15;;;;;;;15.43;8.02;;;;;;;9.42;40.35;101147.25;5038260;28;20061;-82
2022/01/15 09:54:41;;;;;;;15.73;7.90;;;;;;;9.43;40.80;101153.47;5053698;28;20570;-82
2022/01/15 09:57:06;;;;;;;12.90;8.60;;;;;;;9.35;41.27;101148.66;5036235;28;20029;-81
2022/01/15 09:59:32;;;;;;;16.00;9.35;;;;;;;9.43;41.68;101156.16;5053525;28;20098;-83
2022/01/15 10:02:02;;;;;;;21.65;10.13;;;;;;;9.48;41.84;101151.34;5054262;28;20032;-83
2022/01/15 10:04:32;;;;;;;21.65;10.35;;;;;;;9.59;42.08;101152.31;5052031;28;20036;-79
2022/01/15 10:07:22;;;;;;;21.02;10.40;;;;;;;9.58;41.87;101153.28;5012250;28;20403;-81
2022/01/15 10:09:49;;;;;;;16.08;8.93;;;;;;;9.52;40.88;101137.59;5033647;28;20032;-81
2022/01/15 10:12:34;;;;;;;14.13;8.95;;;;;;;9.47;40.83;101153.19;5034333;28;20037;-83
2022/01/15 10:15:05;;;;;;;14.23;7.88;;;;;;;9.42;41.39;101138.34;5017084;28;20120;-80
2022/01/15 10:17:34;;;;;;;17.45;9.15;;;;;;;9.38;41.36;101137.69;5025923;28;20060;-84
2022/01/15 10:20:03;;;;;;;16.08;8.35;;;;;;;9.45;41.63;101138.97;5030435;28;20104;-82
2022/01/15 10:22:31;;;;;;;17.08;8.70;;;;;;;9.55;41.01;101141.88;5037036;28;20029;-83
2022/01/15 10:25:03;;;;;;;17.83;8.05;;;;;;;9.65;40.77;101142.97;5015478;28;20395;-80
2022/01/15 10:27:32;;;;;;;18.67;10.15;;;;;;;9.68;40.93;101143.63;4999729;28;20053;-79
2022/01/15 10:29:59;;;;;;;16.73;7.53;;;;;;;9.74;40.71;101145.03;5032888;28;20040;-79
2022/01/15 10:32:27;;;;;;;16.50;7.95;;;;;;;9.75;39.34;101152.97;5015943;28;20099;-79
2022/01/15 10:34:52;;;;;;;15.27;7.50;;;;;;;9.70;38.60;101128.25;5033271;28;20094;-79
2022/01/15 10:37:24;;;;;;;16.83;8.10;;;;;;;9.80;38.54;101140.09;5052825;28;20029;-81
2022/01/15 10:40:10;;;;;;;19.42;8.13;;;;;;;9.87;38.93;101136.97;5054630;28;20036;-81
2022/01/15 10:42:36;;;;;;;18.50;8.23;;;;;;;9.93;38.76;101123.97;5055272;28;20037;-81
2022/01/15 10:45:12;;;;;;;15.23;8.95;;;;;;;9.88;38.80;101109.16;5053833;28;20031;-81
2022/01/15 10:47:48;;;;;;;24.83;10.80;;;;;;;10.00;38.62;101125.22;5053449;28;20508;-84
2022/01/15 10:50:33;;;;;;;24.40;12.75;;;;;;;10.04;38.60;101123.19;5053698;28;20070;-83
2022/01/15 10:53:10;;;;;;;26.55;9.90;;;;;;;10.03;37.76;101124.19;5035725;28;20025;-83
2022/01/15 10:55:38;;;;;;;24.48;8.40;;;;;;;10.07;36.58;101109.53;5053954;28;20028;-82
2022/01/15 10:58:06;;;;;;;22.58;11.48;;;;;;;10.07;35.99;101113.09;5035211;28;20025;-81
2022/01/15 11:00:38;;;;;;;13.52;7.90;;;;;;;10.12;34.47;101112.78;5034901;28;20039;-82
2022/01/15 11:03:10;;;;;;;20.65;6.30;;;;;;;10.10;34.20;101125.44;5042218;28;20557;-81
2022/01/15 11:05:38;;;;;;;11.60;6.32;;;;;;;10.06;33.43;101111.38;5014796;28;20051;-82
2022/01/15 11:08:13;;;;;;;15.18;5.80;;;;;;;10.07;33.41;101112.22;5035207;28;20039;-82
2022/01/15 11:10:50;;;;;;;15.80;8.88;;;;;;;10.15;33.70;101112.59;5035783;28;20116;-83
2022/01/15 11:13:24;;;;;;;11.55;6.13;;;;;;;10.25;33.46;101108.25;5053643;28;20029;-81
2022/01/15 11:15:54;;;;;;;12.43;6.55;;;;;;;10.30;33.59;101100.72;5053530;28;20060;-82
2022/01/15 11:18:24;;;;;;;8.70;6.15;;;;;;;10.43;33.36;101090.78;5053591;28;20036;-81
2022/01/15 11:20:54;;;;;;;16.58;9.32;;;;;;;10.49;32.44;101084.94;5053193;28;20025;-83
2022/01/15 11:23:21;;;;;;;15.13;6.90;;;;;;;10.66;32.27;101095.31;5055180;28;20105;-83
2022/01/15 11:25:48;;;;;;;11.85;5.40;;;;;;;10.72;30.66;101092.19;5052025;28;20490;-84
2022/01/15 11:28:16;;;;;;;14.70;7.38;;;;;;;10.76;30.49;101090.97;5056192;28;20060;-83
2022/01/15 11:30:45;;;;;;;9.77;4.97;;;;;;;10.79;30.33;101088.03;5053002;28;20029;-83
2022/01/15 11:33:12;;;;;;;16.23;6.07;;;;;;;10.71;29.77;101074.31;5019266;28;20195;-84
2022/01/15 11:35:38;;;;;;;12.32;6.47;;;;;;;10.79;30.39;101079.13;5034506;28;20052;-83
2022/01/15 11:38:04;;;;;;;17.88;6.35;;;;;;;10.75;30.35;101078.50;5035316;28;20137;-82
2022/01/15 11:40:46;;;;;;;9.60;6.13;;;;;;;10.72;30.17;101073.34;5051046;28;20060;-80
2022/01/15 11:43:24;;;;;;;10.75;5.88;;;;;;;10.67;30.39;101071.97;5035959;28;20033;-82